createdAt,value
2018-07-02T00:00:00.430Z,56.19
2018-07-02T00:00:36.241Z,56.48
2018-07-02T00:01:12.823Z,56.48
2018-07-02T00:01:48.238Z,56.48
2018-07-02T00:02:23.434Z,56.38
2018-07-02T00:02:58.757Z,56.57
2018-07-02T00:03:33.881Z,56.29
2018-07-02T00:04:09.229Z,56.38
2018-07-02T00:04:44.569Z,56.38
2018-07-02T00:05:20.055Z,56.29
2018-07-02T00:05:55.398Z,56.29
2018-07-02T00:06:30.682Z,57.06
2018-07-02T00:07:06.001Z,56.48
2018-07-02T00:07:41.598Z,56.76
2018-07-02T00:08:17.309Z,57.43
2018-07-02T00:08:52.907Z,56.76
2018-07-02T00:09:28.580Z,56.67
2018-07-02T00:10:03.724Z,56.76
2018-07-02T00:10:39.343Z,56.76
2018-07-02T00:11:14.847Z,56.76
2018-07-02T00:11:50.637Z,56.38
2018-07-02T00:12:26.052Z,56.96
2018-07-02T00:13:01.176Z,56.86
2018-07-02T00:13:36.476Z,56.48
2018-07-02T00:14:12.003Z,56.86
2018-07-02T00:14:47.523Z,57.06
2018-07-02T00:15:22.968Z,57.24
2018-07-02T00:15:58.159Z,57.34
2018-07-02T00:16:33.674Z,57.53
2018-07-02T00:17:08.773Z,57.24
2018-07-02T00:17:44.101Z,57.53
2018-07-02T00:18:19.303Z,57.53
2018-07-02T00:18:54.645Z,57.63
2018-07-02T00:19:29.803Z,57.15
2018-07-02T00:20:05.364Z,57.43
2018-07-02T00:20:42.063Z,57.53
2018-07-02T00:21:17.272Z,57.53
2018-07-02T00:21:52.517Z,57.43
2018-07-02T00:22:27.813Z,57.43
2018-07-02T00:23:03.101Z,58.11
2018-07-02T00:23:38.348Z,57.15
2018-07-02T00:24:13.639Z,57.24
2018-07-02T00:24:49.207Z,57.98
2018-07-02T00:25:24.825Z,58.01
2018-07-02T00:26:00.048Z,57.92
2018-07-02T00:26:35.244Z,58.11
2018-07-02T00:27:10.829Z,58.11
2018-07-02T00:27:46.253Z,58.30
2018-07-02T00:28:21.970Z,58.20
2018-07-02T00:28:57.512Z,57.60
2018-07-02T00:29:33.150Z,57.50
2018-07-02T00:30:08.632Z,57.70
2018-07-02T00:30:45.776Z,57.82
2018-07-02T00:31:22.088Z,58.01
2018-07-02T00:31:57.541Z,58.17
2018-07-02T00:32:32.990Z,58.20
2018-07-02T00:33:08.621Z,58.17
2018-07-02T00:33:44.033Z,58.08
2018-07-02T00:34:19.535Z,58.08
2018-07-02T00:34:55.058Z,58.17
2018-07-02T00:35:30.373Z,57.98
2018-07-02T00:36:05.574Z,57.79
2018-07-02T00:36:43.427Z,58.17
2018-07-02T00:37:18.737Z,58.08
2018-07-02T00:37:54.166Z,57.98
2018-07-02T00:38:34.414Z,58.17
2018-07-02T00:39:09.715Z,58.08
2018-07-02T00:39:45.088Z,58.27
2018-07-02T00:40:23.610Z,58.17
2018-07-02T00:40:59.220Z,58.46
2018-07-02T00:41:34.770Z,58.46
2018-07-02T00:42:10.091Z,58.37
2018-07-02T00:42:49.397Z,58.27
2018-07-02T00:43:24.609Z,58.65
2018-07-02T00:44:03.170Z,58.56
2018-07-02T00:44:38.619Z,58.84
2018-07-02T00:45:13.827Z,58.17
2018-07-02T00:45:49.131Z,58.27
2018-07-02T00:46:24.321Z,58.17
2018-07-02T00:46:59.653Z,58.46
2018-07-02T00:47:35.206Z,58.46
2018-07-02T00:48:10.500Z,58.65
2018-07-02T00:50:46.999Z,58.56
2018-07-02T00:51:22.499Z,58.56
2018-07-02T00:51:57.815Z,58.65
2018-07-02T00:52:33.295Z,58.75
2018-07-02T00:53:08.772Z,58.65
2018-07-02T00:53:44.020Z,58.56
2018-07-02T00:54:19.211Z,58.56
2018-07-02T00:54:56.752Z,58.75
2018-07-02T00:55:32.175Z,58.84
2018-07-02T00:56:07.785Z,58.75
2018-07-02T00:56:43.090Z,58.56
2018-07-02T00:57:18.585Z,58.65
2018-07-02T00:57:54.396Z,58.75
2018-07-02T00:58:32.787Z,58.65
2018-07-02T00:59:07.849Z,58.75
2018-07-02T00:59:43.089Z,58.65
2018-07-02T01:00:18.264Z,58.84
2018-07-02T01:00:53.647Z,58.65
2018-07-02T01:01:28.979Z,58.75
2018-07-02T01:02:04.490Z,58.46
2018-07-02T01:02:39.809Z,58.56
2018-07-02T01:03:15.014Z,58.75
2018-07-02T01:03:50.321Z,58.65
2018-07-02T01:04:25.428Z,59.04
2018-07-02T01:05:00.658Z,58.27
2018-07-02T01:05:35.773Z,58.17
2018-07-02T01:06:11.106Z,58.94
2018-07-02T01:09:25.368Z,58.37
2018-07-02T01:10:00.590Z,58.84
2018-07-02T01:10:36.065Z,58.56
2018-07-02T01:11:11.459Z,58.27
2018-07-02T01:11:47.086Z,58.75
2018-07-02T01:12:22.553Z,58.94
2018-07-02T01:12:57.752Z,58.84
2018-07-02T01:13:33.031Z,58.94
2018-07-02T01:14:08.360Z,58.65
2018-07-02T01:14:47.757Z,58.84
2018-07-02T01:15:23.209Z,58.94
2018-07-02T01:15:58.839Z,58.84
2018-07-02T01:16:34.312Z,58.72
2018-07-02T01:17:13.597Z,58.62
2018-07-02T01:20:27.977Z,58.81
2018-07-02T01:21:03.278Z,59.01
2018-07-02T01:21:38.964Z,58.81
2018-07-02T01:22:15.276Z,59.11
2018-07-02T01:22:50.572Z,58.91
2018-07-02T01:23:25.651Z,59.01
2018-07-02T01:24:00.970Z,58.53
2018-07-02T01:24:36.159Z,59.11
2018-07-02T01:25:11.407Z,59.30
2018-07-02T01:25:46.810Z,59.30
2018-07-02T01:26:22.196Z,59.01
2018-07-02T01:26:57.289Z,59.01
2018-07-02T01:27:32.575Z,59.30
2018-07-02T01:28:07.891Z,59.30
2018-07-02T01:28:42.989Z,59.11
2018-07-02T01:29:18.566Z,59.01
2018-07-02T01:29:53.896Z,58.81
2018-07-02T01:30:29.573Z,59.30
2018-07-02T01:31:05.084Z,59.20
2018-07-02T01:31:40.271Z,59.30
2018-07-02T01:32:15.972Z,59.39
2018-07-02T01:32:51.462Z,59.39
2018-07-02T01:33:26.955Z,59.48
2018-07-02T01:34:02.664Z,59.77
2018-07-02T01:34:38.237Z,59.68
2018-07-02T01:35:13.973Z,59.68
2018-07-02T01:35:49.276Z,59.87
2018-07-02T01:36:24.774Z,59.58
2018-07-02T01:37:00.191Z,59.68
2018-07-02T01:37:35.291Z,59.87
2018-07-02T01:38:10.603Z,59.68
2018-07-02T01:38:45.925Z,59.87
2018-07-02T01:39:21.138Z,59.58
2018-07-02T01:39:56.335Z,59.39
2018-07-02T01:40:31.754Z,59.68
2018-07-02T01:41:06.963Z,59.87
2018-07-02T01:41:42.147Z,59.77
2018-07-02T01:42:17.502Z,59.39
2018-07-02T01:42:52.623Z,59.87
2018-07-02T01:43:27.822Z,60.25
2018-07-02T01:44:03.161Z,59.68
2018-07-02T01:44:38.752Z,59.87
2018-07-02T01:45:13.806Z,59.39
2018-07-02T01:45:48.907Z,59.97
2018-07-02T01:46:24.504Z,60.54
2018-07-02T01:46:59.922Z,60.64
2018-07-02T01:47:35.520Z,60.54
2018-07-02T01:48:10.530Z,60.25
2018-07-02T01:48:45.549Z,60.44
2018-07-02T01:49:20.879Z,60.44
2018-07-02T01:49:56.110Z,60.35
2018-07-02T01:50:31.340Z,60.44
2018-07-02T01:51:06.669Z,60.54
2018-07-02T01:51:42.074Z,60.06
2018-07-02T01:52:17.674Z,60.44
2018-07-02T01:52:53.007Z,60.25
2018-07-02T01:53:28.804Z,59.84
2018-07-02T01:54:04.373Z,60.35
2018-07-02T01:54:39.657Z,60.06
2018-07-02T01:55:15.164Z,60.06
2018-07-02T01:55:50.674Z,60.22
2018-07-02T01:56:25.818Z,60.13
2018-07-02T01:57:01.212Z,60.35
2018-07-02T01:57:36.601Z,60.06
2018-07-02T01:58:12.140Z,60.99
2018-07-02T01:58:47.544Z,60.70
2018-07-02T01:59:22.974Z,60.13
2018-07-02T01:59:58.291Z,60.41
2018-07-02T02:00:33.492Z,60.22
2018-07-02T02:01:08.899Z,60.41
2018-07-02T02:01:44.397Z,60.64
2018-07-02T02:02:19.618Z,60.80
2018-07-02T02:02:54.928Z,60.70
2018-07-02T02:03:30.240Z,60.80
2018-07-02T02:04:05.790Z,60.61
2018-07-02T02:04:41.166Z,60.80
2018-07-02T02:05:16.287Z,60.51
2018-07-02T02:05:51.722Z,60.89
2018-07-02T02:06:27.318Z,61.08
2018-07-02T02:07:02.957Z,61.57
2018-07-02T02:07:38.347Z,61.57
2018-07-02T02:08:13.490Z,61.18
2018-07-02T02:08:48.985Z,60.70
2018-07-02T02:09:24.388Z,61.18
2018-07-02T02:09:59.510Z,60.89
2018-07-02T02:10:34.543Z,61.28
2018-07-02T02:11:09.661Z,60.80
2018-07-02T02:11:45.160Z,61.08
2018-07-02T02:12:20.180Z,61.28
2018-07-02T02:12:55.493Z,60.70
2018-07-02T02:13:30.616Z,61.37
2018-07-02T02:14:05.562Z,61.28
2018-07-02T02:14:40.949Z,61.28
2018-07-02T02:15:16.154Z,61.28
2018-07-02T02:15:51.452Z,61.37
2018-07-02T02:16:26.721Z,60.61
2018-07-02T02:17:02.136Z,61.28
2018-07-02T02:17:37.536Z,61.85
2018-07-02T02:18:12.669Z,61.28
2018-07-02T02:18:48.049Z,61.08
2018-07-02T02:19:23.169Z,60.70
2018-07-02T02:19:58.372Z,61.57
2018-07-02T02:20:33.487Z,61.37
2018-07-02T02:21:08.832Z,61.37
2018-07-02T02:21:44.553Z,61.08
2018-07-02T02:22:19.878Z,61.08
2018-07-02T02:22:55.522Z,60.61
2018-07-02T02:23:31.409Z,61.08
2018-07-02T02:24:06.628Z,61.08
2018-07-02T02:24:42.118Z,60.70
2018-07-02T02:25:17.347Z,60.99
2018-07-02T02:25:52.753Z,61.28
2018-07-02T02:26:28.384Z,61.18
2018-07-02T02:27:03.810Z,61.66
2018-07-02T02:27:39.216Z,61.47
2018-07-02T02:28:14.441Z,62.23
2018-07-02T02:28:49.833Z,61.85
2018-07-02T02:29:25.226Z,61.94
2018-07-02T02:30:00.627Z,62.23
2018-07-02T02:30:35.886Z,61.94
2018-07-02T02:31:11.358Z,62.23
2018-07-02T02:31:46.463Z,62.33
2018-07-02T02:32:21.681Z,62.43
2018-07-02T02:32:57.172Z,62.33
2018-07-02T02:33:32.480Z,62.62
2018-07-02T02:34:07.806Z,62.43
2018-07-02T02:34:43.094Z,62.43
2018-07-02T02:35:18.504Z,61.76
2018-07-02T02:35:53.941Z,61.94
2018-07-02T02:36:29.351Z,62.04
2018-07-02T02:37:04.684Z,62.04
2018-07-02T02:37:40.206Z,62.04
2018-07-02T02:38:16.044Z,62.71
2018-07-02T02:38:51.452Z,62.62
2018-07-02T02:39:26.687Z,63.00
2018-07-02T02:40:01.910Z,61.94
2018-07-02T02:40:37.515Z,62.04
2018-07-02T02:41:12.886Z,62.52
2018-07-02T02:41:47.991Z,62.68
2018-07-02T02:42:23.163Z,62.71
2018-07-02T02:42:58.357Z,62.77
2018-07-02T02:43:33.894Z,63.00
2018-07-02T02:44:09.108Z,62.90
2018-07-02T02:44:44.451Z,62.97
2018-07-02T02:45:20.075Z,63.00
2018-07-02T02:45:55.365Z,63.54
2018-07-02T02:46:30.698Z,63.45
2018-07-02T02:47:05.970Z,63.35
2018-07-02T02:47:41.287Z,63.54
2018-07-02T02:48:16.584Z,63.54
2018-07-02T02:48:51.670Z,63.54
2018-07-02T02:49:26.883Z,64.02
2018-07-02T02:50:02.489Z,63.93
2018-07-02T02:50:38.593Z,64.02
2018-07-02T02:51:13.835Z,64.40
2018-07-02T02:51:48.915Z,63.64
2018-07-02T02:52:24.361Z,63.73
2018-07-02T02:52:59.842Z,64.40
2018-07-02T02:53:35.257Z,64.50
2018-07-02T02:54:10.574Z,64.31
2018-07-02T02:54:45.595Z,64.69
2018-07-02T02:55:20.746Z,64.40
2018-07-02T02:55:55.835Z,64.59
2018-07-02T02:56:31.581Z,64.79
2018-07-02T02:57:06.858Z,64.59
2018-07-02T02:57:41.961Z,64.22
2018-07-02T02:58:18.189Z,64.12
2018-07-02T02:58:53.379Z,64.40
2018-07-02T02:59:29.038Z,64.31
2018-07-02T03:00:04.124Z,64.59
2018-07-02T03:00:39.945Z,64.79
2018-07-02T03:01:15.810Z,64.98
2018-07-02T03:01:51.392Z,64.88
2018-07-02T03:02:26.833Z,64.88
2018-07-02T03:03:02.320Z,64.88
2018-07-02T03:03:38.045Z,64.59
2018-07-02T03:04:13.480Z,64.69
2018-07-02T03:04:48.704Z,64.59
2018-07-02T03:05:24.005Z,64.40
2018-07-02T03:05:59.289Z,64.69
2018-07-02T03:06:34.525Z,64.59
2018-07-02T03:07:10.033Z,64.69
2018-07-02T03:07:45.539Z,65.08
2018-07-02T03:08:20.899Z,64.69
2018-07-02T03:08:56.133Z,64.50
2018-07-02T03:09:31.644Z,64.69
2018-07-02T03:10:07.046Z,65.45
2018-07-02T03:10:43.054Z,64.98
2018-07-02T03:11:18.377Z,65.08
2018-07-02T03:11:53.964Z,64.98
2018-07-02T03:12:29.450Z,65.26
2018-07-02T03:13:04.779Z,65.17
2018-07-02T03:13:40.119Z,65.17
2018-07-02T03:14:15.735Z,64.12
2018-07-02T03:14:51.113Z,64.69
2018-07-02T03:15:26.424Z,64.59
2018-07-02T03:16:01.925Z,64.88
2018-07-02T03:16:37.352Z,65.36
2018-07-02T03:17:12.558Z,65.08
2018-07-02T03:17:48.176Z,64.79
2018-07-02T03:18:23.376Z,64.88
2018-07-02T03:18:58.732Z,65.26
2018-07-02T03:19:33.967Z,65.36
2018-07-02T03:20:09.265Z,65.94
2018-07-02T03:20:44.798Z,65.45
2018-07-02T03:21:20.318Z,64.88
2018-07-02T03:21:55.830Z,65.55
2018-07-02T03:22:31.392Z,65.36
2018-07-02T03:23:06.879Z,65.52
2018-07-02T03:23:42.002Z,65.42
2018-07-02T03:24:17.615Z,65.61
2018-07-02T03:24:52.795Z,65.33
2018-07-02T03:25:28.063Z,65.42
2018-07-02T03:26:03.676Z,65.52
2018-07-02T03:26:39.435Z,65.23
2018-07-02T03:27:14.821Z,65.33
2018-07-02T03:27:50.418Z,65.42
2018-07-02T03:28:25.684Z,65.90
2018-07-02T03:29:00.776Z,65.90
2018-07-02T03:29:36.103Z,65.23
2018-07-02T03:30:11.409Z,65.81
2018-07-02T03:30:47.029Z,66.09
2018-07-02T03:31:22.369Z,65.81
2018-07-02T03:31:57.683Z,66.19
2018-07-02T03:32:32.915Z,65.71
2018-07-02T03:33:08.231Z,66.00
2018-07-02T03:33:43.848Z,66.09
2018-07-02T03:34:19.080Z,65.90
2018-07-02T03:34:54.547Z,65.90
2018-07-02T03:35:29.982Z,65.71
2018-07-02T03:36:05.387Z,66.00
2018-07-02T03:36:41.227Z,65.90
2018-07-02T03:37:16.415Z,65.81
2018-07-02T03:37:51.871Z,65.61
2018-07-02T03:38:27.509Z,65.81
2018-07-02T03:39:03.021Z,65.71
2018-07-02T03:39:38.627Z,66.00
2018-07-02T03:40:14.037Z,65.52
2018-07-02T03:40:49.689Z,65.52
2018-07-02T03:41:25.023Z,65.42
2018-07-02T03:42:00.357Z,65.33
2018-07-02T03:42:36.184Z,65.81
2018-07-02T03:43:11.671Z,65.42
2018-07-02T03:43:47.001Z,65.42
2018-07-02T03:44:22.488Z,65.42
2018-07-02T03:44:57.795Z,65.33
2018-07-02T03:45:32.709Z,65.42
2018-07-02T03:46:08.109Z,65.90
2018-07-02T03:46:43.578Z,65.90
2018-07-02T03:47:18.796Z,65.71
2018-07-02T03:47:53.950Z,65.90
2018-07-02T03:48:29.549Z,65.52
2018-07-02T03:49:04.795Z,65.90
2018-07-02T03:49:40.019Z,65.52
2018-07-02T03:50:15.427Z,66.00
2018-07-02T03:50:50.638Z,65.71
2018-07-02T03:51:26.248Z,65.71
2018-07-02T03:52:01.720Z,65.61
2018-07-02T03:52:36.785Z,65.33
2018-07-02T03:53:12.134Z,66.00
2018-07-02T03:53:47.721Z,65.90
2018-07-02T03:54:22.861Z,66.09
2018-07-02T03:54:58.141Z,65.61
2018-07-02T03:55:33.237Z,65.90
2018-07-02T03:56:08.596Z,66.09
2018-07-02T03:56:43.887Z,65.81
2018-07-02T03:57:19.179Z,65.90
2018-07-02T03:57:54.601Z,65.90
2018-07-02T03:58:30.100Z,65.71
2018-07-02T03:59:05.377Z,65.52
2018-07-02T03:59:40.577Z,65.90
2018-07-02T04:00:15.887Z,65.90
2018-07-02T04:00:51.104Z,65.90
2018-07-02T04:01:27.027Z,66.19
2018-07-02T04:02:02.271Z,65.90
2018-07-02T04:02:37.555Z,66.00
2018-07-02T04:03:13.039Z,65.61
2018-07-02T04:03:48.393Z,66.19
2018-07-02T04:04:23.583Z,65.71
2018-07-02T04:04:58.978Z,65.61
2018-07-02T04:05:34.157Z,66.28
2018-07-02T04:06:09.394Z,66.19
2018-07-02T04:06:44.485Z,66.28
2018-07-02T04:07:19.848Z,65.90
2018-07-02T04:07:55.283Z,66.47
2018-07-02T04:08:30.604Z,66.19
2018-07-02T04:09:06.036Z,65.61
2018-07-02T04:09:41.036Z,66.00
2018-07-02T04:10:16.277Z,66.13
2018-07-02T04:10:51.670Z,66.28
2018-07-02T04:11:27.280Z,66.19
2018-07-02T04:12:02.623Z,66.28
2018-07-02T04:12:37.929Z,66.38
2018-07-02T04:13:13.654Z,66.00
2018-07-02T04:13:48.883Z,66.51
2018-07-02T04:14:24.518Z,66.22
2018-07-02T04:14:59.996Z,66.32
2018-07-02T04:15:35.552Z,66.22
2018-07-02T04:16:10.903Z,66.70
2018-07-02T04:16:46.121Z,66.28
2018-07-02T04:17:21.642Z,66.32
2018-07-02T04:17:57.387Z,66.03
2018-07-02T04:18:32.596Z,66.19
2018-07-02T04:19:08.102Z,66.22
2018-07-02T04:19:43.481Z,66.22
2018-07-02T04:20:18.891Z,66.32
2018-07-02T04:20:54.008Z,66.61
2018-07-02T04:21:29.397Z,66.51
2018-07-02T04:22:04.656Z,65.55
2018-07-02T04:22:39.854Z,65.94
2018-07-02T04:23:15.257Z,66.61
2018-07-02T04:23:50.689Z,66.89
2018-07-02T04:24:25.936Z,67.14
2018-07-02T04:25:01.554Z,66.80
2018-07-02T04:25:37.186Z,66.61
2018-07-02T04:26:12.816Z,66.61
2018-07-02T04:26:48.048Z,66.32
2018-07-02T04:27:23.554Z,67.18
2018-07-02T04:27:59.054Z,67.08
2018-07-02T04:28:34.251Z,66.80
2018-07-02T04:29:09.980Z,66.41
2018-07-02T04:29:45.393Z,66.51
2018-07-02T04:30:20.494Z,66.13
2018-07-02T04:30:55.928Z,66.70
2018-07-02T04:31:31.244Z,66.61
2018-07-02T04:32:06.756Z,66.32
2018-07-02T04:32:42.404Z,66.80
2018-07-02T04:33:17.685Z,66.51
2018-07-02T04:33:53.096Z,66.70
2018-07-02T04:34:28.426Z,66.22
2018-07-02T04:35:03.749Z,66.70
2018-07-02T04:35:39.256Z,66.51
2018-07-02T04:36:14.470Z,66.61
2018-07-02T04:36:49.668Z,66.61
2018-07-02T04:37:25.316Z,66.51
2018-07-02T04:38:00.639Z,66.80
2018-07-02T04:38:36.134Z,66.22
2018-07-02T04:39:11.459Z,66.61
2018-07-02T04:39:46.497Z,66.41
2018-07-02T04:40:21.705Z,66.41
2018-07-02T04:40:57.218Z,66.61
2018-07-02T04:41:32.670Z,66.61
2018-07-02T04:42:08.386Z,66.70
2018-07-02T04:42:43.906Z,66.13
2018-07-02T04:43:19.108Z,66.32
2018-07-02T04:43:54.611Z,66.13
2018-07-02T04:44:30.032Z,66.32
2018-07-02T04:45:05.601Z,66.51
2018-07-02T04:45:41.197Z,66.22
2018-07-02T04:46:16.439Z,66.32
2018-07-02T04:46:51.857Z,66.41
2018-07-02T04:47:27.155Z,66.32
2018-07-02T04:48:02.584Z,66.51
2018-07-02T04:48:37.798Z,66.41
2018-07-02T04:49:13.155Z,65.94
2018-07-02T04:49:48.623Z,65.94
2018-07-02T04:50:23.961Z,65.55
2018-07-02T04:50:59.484Z,65.88
2018-07-02T04:51:34.918Z,66.32
2018-07-02T04:52:10.233Z,66.13
2018-07-02T04:52:45.543Z,65.84
2018-07-02T04:53:20.806Z,66.06
2018-07-02T04:53:56.230Z,66.06
2018-07-02T04:54:31.354Z,65.88
2018-07-02T04:55:06.812Z,65.97
2018-07-02T04:55:42.356Z,66.25
2018-07-02T04:56:17.589Z,65.39
2018-07-02T04:56:53.001Z,65.49
2018-07-02T04:57:28.557Z,66.16
2018-07-02T04:58:03.866Z,66.35
2018-07-02T04:58:39.120Z,65.78
2018-07-02T04:59:14.521Z,65.68
2018-07-02T04:59:50.181Z,66.16
2018-07-02T05:00:25.752Z,65.49
2018-07-02T05:01:02.195Z,65.58
2018-07-02T05:01:37.413Z,65.39
2018-07-02T05:02:12.743Z,65.30
2018-07-02T05:02:47.944Z,65.39
2018-07-02T05:03:23.396Z,65.49
2018-07-02T05:03:58.625Z,65.20
2018-07-02T05:04:34.044Z,65.11
2018-07-02T05:05:09.387Z,65.30
2018-07-02T05:05:45.088Z,65.20
2018-07-02T05:06:20.557Z,65.39
2018-07-02T05:06:56.084Z,65.30
2018-07-02T05:07:31.442Z,64.95
2018-07-02T05:08:06.700Z,64.66
2018-07-02T05:08:41.925Z,65.01
2018-07-02T05:09:17.148Z,65.20
2018-07-02T05:09:52.684Z,65.42
2018-07-02T05:10:28.093Z,64.85
2018-07-02T05:11:03.483Z,64.76
2018-07-02T05:11:38.637Z,64.66
2018-07-02T05:12:13.870Z,64.85
2018-07-02T05:12:49.166Z,64.76
2018-07-02T05:13:24.314Z,64.18
2018-07-02T05:13:59.624Z,64.37
2018-07-02T05:14:35.239Z,64.18
2018-07-02T05:15:10.233Z,63.99
2018-07-02T05:15:45.613Z,64.09
2018-07-02T05:16:21.210Z,64.28
2018-07-02T05:16:56.599Z,64.59
2018-07-02T05:17:32.097Z,64.18
2018-07-02T05:18:07.399Z,64.09
2018-07-02T05:18:42.810Z,63.73
2018-07-02T05:19:18.106Z,63.73
2018-07-02T05:19:53.534Z,63.45
2018-07-02T05:20:28.930Z,63.64
2018-07-02T05:21:04.502Z,63.92
2018-07-02T05:21:39.895Z,63.73
2018-07-02T05:22:15.445Z,63.26
2018-07-02T05:22:50.751Z,63.16
2018-07-02T05:23:25.969Z,62.96
2018-07-02T05:24:01.315Z,63.26
2018-07-02T05:24:36.829Z,63.73
2018-07-02T05:25:12.165Z,63.83
2018-07-02T05:25:47.460Z,63.26
2018-07-02T05:26:22.879Z,63.64
2018-07-02T05:26:58.204Z,63.64
2018-07-02T05:27:33.432Z,62.96
2018-07-02T05:28:08.850Z,63.09
2018-07-02T05:28:44.357Z,63.19
2018-07-02T05:29:19.685Z,63.09
2018-07-02T05:29:55.007Z,63.38
2018-07-02T05:30:30.224Z,62.62
2018-07-02T05:31:05.521Z,62.23
2018-07-02T05:31:40.956Z,62.81
2018-07-02T05:32:16.401Z,62.42
2018-07-02T05:32:51.847Z,62.52
2018-07-02T05:33:26.709Z,63.19
2018-07-02T05:34:01.933Z,62.71
2018-07-02T05:34:37.445Z,62.23
2018-07-02T05:35:12.865Z,62.13
2018-07-02T05:35:48.509Z,62.23
2018-07-02T05:36:23.926Z,61.78
2018-07-02T05:36:59.303Z,61.88
2018-07-02T05:37:34.791Z,61.88
2018-07-02T05:38:10.016Z,61.69
2018-07-02T05:38:45.462Z,61.21
2018-07-02T05:39:21.065Z,61.11
2018-07-02T05:39:56.355Z,61.69
2018-07-02T05:40:31.786Z,61.40
2018-07-02T05:41:07.026Z,60.92
2018-07-02T05:41:42.140Z,60.92
2018-07-02T05:42:17.511Z,60.35
2018-07-02T05:42:52.494Z,60.18
2018-07-02T05:43:27.738Z,59.99
2018-07-02T05:44:03.231Z,60.28
2018-07-02T05:44:38.651Z,59.70
2018-07-02T05:45:14.229Z,59.41
2018-07-02T05:45:49.643Z,59.80
2018-07-02T05:46:25.330Z,59.41
2018-07-02T05:47:00.742Z,59.03
2018-07-02T05:47:36.105Z,59.70
2018-07-02T05:48:11.486Z,59.80
2018-07-02T05:48:46.745Z,59.99
2018-07-02T05:49:22.064Z,59.89
2018-07-02T05:49:57.403Z,59.41
2018-07-02T05:50:32.604Z,59.64
2018-07-02T05:51:07.923Z,59.22
2018-07-02T05:51:44.453Z,58.67
2018-07-02T05:52:19.788Z,59.54
2018-07-02T05:52:55.411Z,59.06
2018-07-02T05:53:30.599Z,58.67
2018-07-02T05:54:06.167Z,58.48
2018-07-02T05:54:41.551Z,58.77
2018-07-02T05:55:17.104Z,58.32
2018-07-02T05:55:52.609Z,57.81
2018-07-02T05:56:27.943Z,58.03
2018-07-02T05:57:03.237Z,57.26
2018-07-02T05:57:38.291Z,57.84
2018-07-02T05:58:14.304Z,57.75
2018-07-02T05:58:49.621Z,57.36
2018-07-02T05:59:24.852Z,56.59
2018-07-02T06:00:00.179Z,56.49
2018-07-02T06:00:36.268Z,56.71
2018-07-02T06:01:11.195Z,56.04
2018-07-02T06:01:46.633Z,55.66
2018-07-02T06:02:21.965Z,56.04
2018-07-02T06:02:57.575Z,54.89
2018-07-02T06:03:33.002Z,54.79
2018-07-02T06:04:08.610Z,55.18
2018-07-02T06:04:45.618Z,54.89
2018-07-02T06:05:20.716Z,55.85
2018-07-02T06:05:56.237Z,55.66
2018-07-02T06:06:31.449Z,55.20
2018-07-02T06:07:06.564Z,55.59
2018-07-02T06:07:41.990Z,55.49
2018-07-02T06:08:17.414Z,55.59
2018-07-02T06:10:53.875Z,53.78
2018-07-02T06:11:33.304Z,53.40
2018-07-02T06:12:08.690Z,53.31
2018-07-02T06:12:47.127Z,53.69
2018-07-02T06:13:22.325Z,53.53
2018-07-02T06:14:00.929Z,53.05
2018-07-02T06:14:36.387Z,52.75
2018-07-02T06:15:11.532Z,52.18
2018-07-02T06:15:50.042Z,52.27
2018-07-02T06:16:25.031Z,52.66
2018-07-02T06:17:00.405Z,52.47
2018-07-02T06:17:41.661Z,52.20
2018-07-02T06:18:16.854Z,51.53
2018-07-02T06:20:53.403Z,51.26
2018-07-02T06:21:28.729Z,51.84
2018-07-02T06:22:07.255Z,50.30
2018-07-02T06:22:42.474Z,50.49
2018-07-02T06:23:17.880Z,50.23
2018-07-02T06:23:54.462Z,49.37
2018-07-02T06:24:29.852Z,49.46
2018-07-02T06:25:08.478Z,49.75
2018-07-02T06:25:49.272Z,49.46
2018-07-02T06:26:24.375Z,49.19
2018-07-02T06:26:59.702Z,47.94
2018-07-02T06:27:35.019Z,48.52
2018-07-02T06:28:10.306Z,48.81
2018-07-02T06:28:45.629Z,48.74
2018-07-02T06:29:21.116Z,48.83
2018-07-02T06:29:56.424Z,48.44
2018-07-02T06:30:31.993Z,48.47
2018-07-02T06:31:07.516Z,47.80
2018-07-02T06:31:42.809Z,47.60
2018-07-02T06:32:17.890Z,47.22
2018-07-02T06:32:53.101Z,47.22
2018-07-02T06:33:28.313Z,46.15
2018-07-02T06:34:03.824Z,46.47
2018-07-02T06:34:42.129Z,45.98
2018-07-02T06:35:17.386Z,46.47
2018-07-02T06:35:52.880Z,45.59
2018-07-02T06:36:28.174Z,45.40
2018-07-02T06:37:03.316Z,45.21
2018-07-02T06:37:38.883Z,45.23
2018-07-02T06:38:14.034Z,45.54
2018-07-02T06:38:49.138Z,45.64
2018-07-02T06:39:24.446Z,44.60
2018-07-02T06:39:59.958Z,43.37
2018-07-02T06:40:35.382Z,42.10
2018-07-02T06:41:11.700Z,41.55
2018-07-02T06:41:47.198Z,41.95
2018-07-02T06:42:22.511Z,41.10
2018-07-02T06:42:57.824Z,39.86
2018-07-02T06:43:33.126Z,39.47
2018-07-02T06:44:08.619Z,38.62
2018-07-02T06:44:44.020Z,39.41
2018-07-02T06:45:19.903Z,37.96
2018-07-02T06:45:55.119Z,38.17
2018-07-02T06:46:33.344Z,37.20
2018-07-02T06:47:08.953Z,36.13
2018-07-02T06:47:47.680Z,36.83
2018-07-02T06:48:25.064Z,36.34
2018-07-02T06:49:00.151Z,35.57
2018-07-02T06:49:35.229Z,35.96
2018-07-02T06:50:10.545Z,35.57
2018-07-02T06:50:45.963Z,35.58
2018-07-02T06:51:21.383Z,35.08
2018-07-02T06:51:56.918Z,35.37
2018-07-02T06:52:32.542Z,35.96
2018-07-02T06:53:08.115Z,35.27
2018-07-02T06:53:43.319Z,35.37
2018-07-02T06:54:18.664Z,35.16
2018-07-02T06:54:54.242Z,35.55
2018-07-02T06:55:29.965Z,35.72
2018-07-02T06:56:05.183Z,36.69
2018-07-02T06:56:40.717Z,36.30
2018-07-02T06:57:16.345Z,37.08
2018-07-02T06:57:51.784Z,37.08
2018-07-02T06:58:27.259Z,36.79
2018-07-02T06:59:02.535Z,36.11
2018-07-02T06:59:38.147Z,35.82
2018-07-02T07:00:13.472Z,36.99
2018-07-02T07:00:48.977Z,36.77
2018-07-02T07:01:24.472Z,36.97
2018-07-02T07:01:59.891Z,37.07
2018-07-02T07:02:35.544Z,37.66
2018-07-02T07:03:11.048Z,37.08
2018-07-02T07:03:46.798Z,37.37
2018-07-02T07:04:22.119Z,37.66
2018-07-02T07:04:57.258Z,37.47
2018-07-02T07:05:32.760Z,37.66
2018-07-02T07:06:08.187Z,37.98
2018-07-02T07:06:43.494Z,37.30
2018-07-02T07:07:19.093Z,36.89
2018-07-02T07:07:54.432Z,37.37
2018-07-02T07:08:29.781Z,37.49
2018-07-02T07:09:05.069Z,36.71
2018-07-02T07:09:40.247Z,37.10
2018-07-02T07:10:15.439Z,39.92
2018-07-02T07:10:50.935Z,49.61
2018-07-02T07:11:26.141Z,53.53
2018-07-02T07:12:01.593Z,48.57
2018-07-02T07:12:37.147Z,49.99
2018-07-02T07:13:12.649Z,55.40
2018-07-02T07:13:47.884Z,47.91
2018-07-02T07:14:23.612Z,49.54
2018-07-02T07:14:58.925Z,51.28
2018-07-02T07:15:34.283Z,52.22
2018-07-02T07:16:09.523Z,60.57
2018-07-02T07:16:45.041Z,59.69
2018-07-02T07:17:20.254Z,61.08
2018-07-02T07:17:55.782Z,52.85
2018-07-02T07:18:31.514Z,51.88
2018-07-02T07:19:06.967Z,47.45
2018-07-02T07:19:42.297Z,47.55
2018-07-02T07:20:17.406Z,49.00
2018-07-02T07:20:52.739Z,51.72
2018-07-02T07:21:28.124Z,49.10
2018-07-02T07:22:03.343Z,46.46
2018-07-02T07:22:38.754Z,48.61
2018-07-02T07:23:14.072Z,46.26
2018-07-02T07:23:49.593Z,49.75
2018-07-02T07:24:24.766Z,51.72
2018-07-02T07:25:00.065Z,51.72
2018-07-02T07:25:35.150Z,57.04
2018-07-02T07:26:10.377Z,55.49
2018-07-02T07:26:45.981Z,53.58
2018-07-02T07:27:21.337Z,55.52
2018-07-02T07:27:56.529Z,56.03
2018-07-02T07:28:31.983Z,53.70
2018-07-02T07:29:07.207Z,50.99
2018-07-02T07:29:42.836Z,48.49
2018-07-02T07:30:17.942Z,46.65
2018-07-02T07:30:53.474Z,46.67
2018-07-02T07:31:29.192Z,52.62
2018-07-02T07:32:04.591Z,49.92
2018-07-02T07:32:40.016Z,46.23
2018-07-02T07:33:15.318Z,45.48
2018-07-02T07:33:50.987Z,48.20
2018-07-02T07:34:26.575Z,47.44
2018-07-02T07:35:01.949Z,45.50
2018-07-02T07:35:38.174Z,45.11
2018-07-02T07:36:13.781Z,45.14
2018-07-02T07:36:48.931Z,52.72
2018-07-02T07:37:24.349Z,45.60
2018-07-02T07:37:59.493Z,48.49
2018-07-02T07:38:35.532Z,52.09
2018-07-02T07:39:11.053Z,55.90
2018-07-02T07:39:46.236Z,51.92
2018-07-02T07:40:21.560Z,49.49
2018-07-02T07:40:57.154Z,47.17
2018-07-02T07:41:32.494Z,45.14
2018-07-02T07:42:07.621Z,45.23
2018-07-02T07:42:42.955Z,41.14
2018-07-02T07:43:18.286Z,42.21
2018-07-02T07:43:54.010Z,39.90
2018-07-02T07:44:29.845Z,39.51
2018-07-02T07:45:05.039Z,37.56
2018-07-02T07:45:40.360Z,36.02
2018-07-02T07:46:15.941Z,35.44
2018-07-02T07:46:51.156Z,36.51
2018-07-02T07:47:26.346Z,40.35
2018-07-02T07:48:02.173Z,37.52